Guerneville, California
Current Conditions -  °F | °C
As of 12:53 AM on Wednesday 22 Oct 2014 (Local Time) from KSTS Reporting Station
Clear Clear  
Wind Chill: 51°   Ceiling: Unl
Heat Index: 51°   Visibility: 10mi
Dew Point: 49°   Wind: 0mph
Humidity: 92%   Direction: NA
Pressure: 30.04"   Gusts: NA
Location:  38.5°N, 123°W
Report Text: KSTS 220753Z AUTO 00000KT 10SM CLR 11/09 A3004 RMK AO2 SLP167 T01060094 402330067
Loading
Personal Weather Stations






























Interactive Weather Map
Tropical Storm Tracking
New forecast layout! Learn more

10-Day Weather Forecast

Advertisements
Track Severe Weather on mobile